createdAt,value
2019-03-09T00:01:11.215Z,18.70
2019-03-09T00:03:38.775Z,17.43
2019-03-09T00:06:06.286Z,18.33
2019-03-09T00:08:34.075Z,16.27
2019-03-09T00:11:01.481Z,12.27
2019-03-09T00:13:28.887Z,14.13
2019-03-09T00:15:56.463Z,10.80
2019-03-09T00:18:23.912Z,14.80
2019-03-09T00:20:51.315Z,14.47
2019-03-09T00:23:23.584Z,12.63
2019-03-09T00:25:57.038Z,12.43
2019-03-09T00:28:26.195Z,15.13
2019-03-09T00:30:55.168Z,16.10
2019-03-09T00:33:22.615Z,17.40
2019-03-09T00:35:50.053Z,13.43
2019-03-09T00:38:17.487Z,17.60
2019-03-09T00:40:44.825Z,18.33
2019-03-09T00:43:12.227Z,16.57
2019-03-09T00:45:39.633Z,16.60
2019-03-09T00:48:07.127Z,18.43
2019-03-09T00:50:34.697Z,22.43
2019-03-09T00:53:02.112Z,18.67
2019-03-09T00:55:29.649Z,19.07
2019-03-09T00:57:57.129Z,22.97
2019-03-09T01:00:24.668Z,22.10
2019-03-09T01:02:52.130Z,23.70
2019-03-09T01:05:19.575Z,29.63
2019-03-09T01:07:46.966Z,27.90
2019-03-09T01:10:15.113Z,34.07
2019-03-09T01:12:43.206Z,27.70
2019-03-09T01:15:10.740Z,35.67
2019-03-09T01:17:38.137Z,37.67
2019-03-09T01:20:07.138Z,34.93
2019-03-09T01:22:34.542Z,30.80
2019-03-09T01:25:02.013Z,38.73
2019-03-09T01:27:29.331Z,31.93
2019-03-09T01:29:56.846Z,35.07
2019-03-09T01:32:25.873Z,34.47
2019-03-09T01:34:53.363Z,37.70
2019-03-09T01:37:20.799Z,35.17
2019-03-09T01:39:48.173Z,30.83
2019-03-09T01:42:15.634Z,34.83
2019-03-09T01:44:43.680Z,33.20
2019-03-09T01:47:11.117Z,33.57
2019-03-09T01:49:38.495Z,34.83
2019-03-09T01:52:06.006Z,29.43
2019-03-09T01:54:33.477Z,36.80
2019-03-09T01:57:00.977Z,28.13
2019-03-09T01:59:28.476Z,27.83
2019-03-09T02:01:55.937Z,25.07
2019-03-09T02:04:23.374Z,27.47
2019-03-09T02:06:51.981Z,24.63
2019-03-09T02:09:19.453Z,24.67
2019-03-09T02:11:46.981Z,23.23
2019-03-09T02:14:14.455Z,20.93
2019-03-09T02:16:41.801Z,21.57
2019-03-09T02:19:09.263Z,17.40
2019-03-09T02:21:38.835Z,15.90
2019-03-09T02:24:06.232Z,15.03
2019-03-09T02:26:33.639Z,16.47
2019-03-09T02:29:01.310Z,12.97
2019-03-09T02:31:28.719Z,12.27
2019-03-09T02:33:56.367Z,11.80
2019-03-09T02:36:26.833Z,13.67
2019-03-09T02:38:55.805Z,12.93
2019-03-09T02:41:23.216Z,8.77
2019-03-09T02:43:50.631Z,9.13
2019-03-09T02:46:18.018Z,12.13
2019-03-09T02:48:45.390Z,10.60
2019-03-09T02:51:12.787Z,8.23
2019-03-09T02:53:40.241Z,8.33
2019-03-09T02:56:07.573Z,9.73
2019-03-09T02:58:34.990Z,7.57
2019-03-09T03:01:03.961Z,10.10
2019-03-09T03:03:31.512Z,8.73
2019-03-09T03:05:58.979Z,9.87
2019-03-09T03:08:26.410Z,7.93
2019-03-09T03:10:53.799Z,9.63
2019-03-09T03:13:21.593Z,11.07
2019-03-09T03:15:49.062Z,9.07
2019-03-09T03:18:16.500Z,7.87
2019-03-09T03:20:43.908Z,9.80
2019-03-09T03:23:11.377Z,10.23
2019-03-09T03:25:38.905Z,9.40
2019-03-09T03:28:07.619Z,10.23
2019-03-09T03:30:34.947Z,8.33
2019-03-09T03:33:02.432Z,11.20
2019-03-09T03:35:29.898Z,7.27
2019-03-09T03:37:57.357Z,7.30
2019-03-09T03:40:24.824Z,7.37
2019-03-09T03:42:52.198Z,6.13
2019-03-09T03:45:19.531Z,6.23
2019-03-09T03:47:47.337Z,6.00
2019-03-09T03:50:14.818Z,5.57
2019-03-09T03:52:42.195Z,5.87
2019-03-09T03:55:09.828Z,6.87
2019-03-09T03:57:37.219Z,8.37
2019-03-09T04:00:06.402Z,6.50
2019-03-09T04:02:33.810Z,6.67
2019-03-09T04:05:01.216Z,5.43
2019-03-09T04:07:28.607Z,5.20
2019-03-09T04:09:57.664Z,7.87
2019-03-09T04:12:26.669Z,10.33
2019-03-09T04:14:54.081Z,12.20
2019-03-09T04:17:21.550Z,11.23
2019-03-09T04:19:48.981Z,9.57
2019-03-09T04:22:16.347Z,6.77
2019-03-09T04:24:43.668Z,7.20
2019-03-09T04:27:10.985Z,11.10
2019-03-09T04:29:38.433Z,9.27
2019-03-09T04:32:05.798Z,12.07
2019-03-09T04:34:33.207Z,15.53
2019-03-09T04:37:00.850Z,12.97
2019-03-09T04:39:28.182Z,11.67
2019-03-09T04:41:55.618Z,12.90
2019-03-09T04:44:23.002Z,12.70
2019-03-09T04:46:50.367Z,12.10
2019-03-09T04:49:17.764Z,13.13
2019-03-09T04:51:45.154Z,11.93
2019-03-09T04:54:12.518Z,11.87
2019-03-09T04:56:39.950Z,10.50
2019-03-09T04:59:08.019Z,12.07
2019-03-09T05:01:35.430Z,9.07
2019-03-09T05:04:22.478Z,10.50
2019-03-09T05:06:49.976Z,12.57
2019-03-09T05:09:25.372Z,13.03
2019-03-09T05:11:52.822Z,13.57
2019-03-09T05:14:20.324Z,16.57
2019-03-09T05:16:47.821Z,11.63
2019-03-09T05:19:15.308Z,8.43
2019-03-09T05:21:42.693Z,8.97
2019-03-09T05:24:10.155Z,10.23
2019-03-09T05:26:37.719Z,8.17
2019-03-09T05:29:05.477Z,9.60
2019-03-09T05:31:32.954Z,8.37
2019-03-09T05:34:00.470Z,8.80
2019-03-09T05:36:27.988Z,10.17
2019-03-09T05:38:55.446Z,12.17
2019-03-09T05:41:22.941Z,10.63
2019-03-09T05:43:50.293Z,12.30
2019-03-09T05:46:17.636Z,10.23
2019-03-09T05:48:44.998Z,7.77
2019-03-09T05:51:12.353Z,8.37
2019-03-09T05:53:39.702Z,10.77
2019-03-09T05:56:07.882Z,9.40
2019-03-09T05:58:35.279Z,9.00
2019-03-09T06:01:02.698Z,6.77
2019-03-09T06:03:30.109Z,7.83
2019-03-09T06:05:57.471Z,12.50
2019-03-09T06:08:24.830Z,7.93
2019-03-09T06:10:52.622Z,8.20
2019-03-09T06:13:19.992Z,9.97
2019-03-09T06:15:47.369Z,7.07
2019-03-09T06:18:14.696Z,7.47
2019-03-09T06:20:42.086Z,7.97
2019-03-09T06:23:09.433Z,9.10
2019-03-09T06:25:38.534Z,9.93
2019-03-09T06:28:05.836Z,10.07
2019-03-09T06:30:33.307Z,9.53
2019-03-09T06:33:11.231Z,13.93
2019-03-09T06:35:38.560Z,16.73
2019-03-09T06:38:24.451Z,10.27
2019-03-09T06:40:51.831Z,9.27
2019-03-09T06:43:19.230Z,8.73
2019-03-09T06:45:46.560Z,11.70
2019-03-09T06:48:13.977Z,11.10
2019-03-09T06:50:41.294Z,12.23
2019-03-09T06:53:08.626Z,9.33
2019-03-09T06:55:36.009Z,10.37
2019-03-09T06:58:03.358Z,10.07
2019-03-09T07:00:31.945Z,8.97
2019-03-09T07:02:59.441Z,8.97
2019-03-09T07:05:26.923Z,7.63
2019-03-09T07:07:54.370Z,7.20
2019-03-09T07:10:23.103Z,9.80
2019-03-09T07:12:50.457Z,9.83
2019-03-09T07:15:24.829Z,10.00
2019-03-09T07:17:53.312Z,8.50
2019-03-09T07:20:21.433Z,11.97
2019-03-09T07:22:48.800Z,12.27
2019-03-09T07:25:16.231Z,12.80
2019-03-09T07:27:43.644Z,16.90
2019-03-09T07:30:15.039Z,9.07
2019-03-09T07:32:42.601Z,17.00
2019-03-09T07:35:10.180Z,15.87
2019-03-09T07:37:37.622Z,18.37
2019-03-09T07:40:08.415Z,18.67
2019-03-09T07:42:35.934Z,18.00
2019-03-09T07:45:05.621Z,14.67
2019-03-09T07:47:33.117Z,12.67
2019-03-09T07:50:00.721Z,10.03
2019-03-09T07:52:32.734Z,10.13
2019-03-09T07:55:00.362Z,9.27
2019-03-09T07:57:27.941Z,8.27
2019-03-09T07:59:55.347Z,12.33
2019-03-09T08:02:22.719Z,9.33
2019-03-09T08:04:50.022Z,8.10
2019-03-09T08:07:17.501Z,6.87
2019-03-09T08:09:44.840Z,8.07
2019-03-09T08:12:12.177Z,4.80
2019-03-09T08:14:39.612Z,7.70
2019-03-09T08:17:07.916Z,8.13
2019-03-09T08:19:38.689Z,7.80
2019-03-09T08:22:06.109Z,7.03
2019-03-09T08:25:07.407Z,6.13
2019-03-09T08:27:47.835Z,5.00
2019-03-09T08:30:31.981Z,7.87
2019-03-09T08:33:03.230Z,12.17
2019-03-09T08:35:33.388Z,5.67
2019-03-09T08:38:04.212Z,5.90
2019-03-09T08:40:34.511Z,10.80
2019-03-09T08:43:03.435Z,3.63
2019-03-09T08:45:30.760Z,8.77
2019-03-09T08:47:58.281Z,4.50
2019-03-09T08:50:25.777Z,7.67
2019-03-09T08:52:58.113Z,2.27
2019-03-09T08:55:25.575Z,4.90
2019-03-09T08:57:52.997Z,6.07
2019-03-09T09:00:29.827Z,5.07
2019-03-09T09:02:56.512Z,2.47
2019-03-09T09:05:24.100Z,6.37
2019-03-09T09:07:51.504Z,4.20
2019-03-09T09:10:18.849Z,4.97
2019-03-09T09:12:48.621Z,3.17
2019-03-09T09:15:16.852Z,3.90
2019-03-09T09:17:44.295Z,4.17
2019-03-09T09:20:25.463Z,4.87
2019-03-09T09:22:52.818Z,5.03
2019-03-09T09:25:20.192Z,6.43
2019-03-09T09:27:47.617Z,2.53
2019-03-09T09:30:27.954Z,7.07
2019-03-09T09:32:56.623Z,3.53
2019-03-09T09:35:23.913Z,5.73
2019-03-09T09:37:51.535Z,5.50
2019-03-09T09:40:25.531Z,3.67
2019-03-09T09:42:52.894Z,5.57
2019-03-09T09:45:20.172Z,8.30
2019-03-09T09:47:47.580Z,7.67
2019-03-09T09:50:15.660Z,6.10
2019-03-09T09:52:43.002Z,5.93
2019-03-09T09:55:11.424Z,4.93
2019-03-09T09:57:38.780Z,6.47
2019-03-09T10:00:10.686Z,6.87
2019-03-09T10:02:38.091Z,6.00
2019-03-09T10:05:07.173Z,3.97
2019-03-09T10:07:37.972Z,3.33
2019-03-09T10:10:08.183Z,4.23
2019-03-09T10:12:35.536Z,3.53
2019-03-09T10:15:02.981Z,3.73
2019-03-09T10:17:30.724Z,4.20
2019-03-09T10:19:58.192Z,2.43
2019-03-09T10:22:31.586Z,7.23
2019-03-09T10:24:58.885Z,7.77
2019-03-09T10:27:26.308Z,4.30
2019-03-09T10:29:53.603Z,6.27
2019-03-09T10:32:22.627Z,7.23
2019-03-09T10:34:50.984Z,3.00
2019-03-09T10:37:18.334Z,3.73
2019-03-09T10:39:46.756Z,8.97
2019-03-09T10:42:16.780Z,7.57
2019-03-09T10:44:44.228Z,5.50
2019-03-09T10:47:11.722Z,8.23
2019-03-09T10:49:39.491Z,9.57
2019-03-09T10:52:07.084Z,3.23
2019-03-09T10:54:36.254Z,8.03
2019-03-09T10:57:04.598Z,5.43
2019-03-09T10:59:32.028Z,4.93
2019-03-09T11:02:01.024Z,9.23
2019-03-09T11:04:28.488Z,5.63
2019-03-09T11:06:55.857Z,4.80
2019-03-09T11:09:23.205Z,6.40
2019-03-09T11:11:52.066Z,3.93
2019-03-09T11:14:19.489Z,8.00
2019-03-09T11:16:46.903Z,3.57
2019-03-09T11:19:15.968Z,4.63
2019-03-09T11:21:43.527Z,6.67
2019-03-09T11:24:11.090Z,4.03
2019-03-09T11:26:38.562Z,2.93
2019-03-09T11:29:06.092Z,4.40
2019-03-09T11:31:33.432Z,4.83
2019-03-09T11:34:02.788Z,3.53
2019-03-09T11:36:31.486Z,5.50
2019-03-09T11:38:59.498Z,2.63
2019-03-09T11:41:28.480Z,4.03
2019-03-09T11:44:03.587Z,4.93
2019-03-09T11:46:31.020Z,4.60
2019-03-09T11:49:01.201Z,4.17
2019-03-09T11:51:31.622Z,1.87
2019-03-09T11:54:02.018Z,2.10
2019-03-09T11:56:31.797Z,3.07
2019-03-09T11:59:00.725Z,4.73
2019-03-09T12:01:28.247Z,3.20
2019-03-09T12:03:57.341Z,3.47
2019-03-09T12:06:26.414Z,6.93
2019-03-09T12:08:54.145Z,7.50
2019-03-09T12:11:21.871Z,5.73
2019-03-09T12:13:49.352Z,7.93
2019-03-09T12:16:17.604Z,7.83
2019-03-09T12:18:45.540Z,9.70
2019-03-09T12:21:13.034Z,9.57
2019-03-09T12:23:44.812Z,9.27
2019-03-09T12:26:12.221Z,6.63
2019-03-09T12:28:39.568Z,7.93
2019-03-09T12:31:06.990Z,8.97
2019-03-09T12:33:34.513Z,8.93
2019-03-09T12:36:02.151Z,8.47
2019-03-09T12:38:29.511Z,7.93
2019-03-09T12:40:56.920Z,7.50
2019-03-09T12:43:24.404Z,6.77
2019-03-09T12:45:51.724Z,8.13
2019-03-09T12:48:19.129Z,6.03
2019-03-09T12:50:48.143Z,5.40
2019-03-09T12:53:15.537Z,5.47
2019-03-09T12:55:42.993Z,7.77
2019-03-09T12:58:10.412Z,7.27
2019-03-09T13:00:37.826Z,8.07
2019-03-09T13:03:05.203Z,7.27
2019-03-09T13:05:33.182Z,6.37
2019-03-09T13:08:02.294Z,9.70
2019-03-09T13:10:29.581Z,8.97
2019-03-09T13:12:57.028Z,8.63
2019-03-09T13:15:24.703Z,7.13
2019-03-09T13:17:53.489Z,6.80
2019-03-09T13:20:20.821Z,9.60
2019-03-09T13:22:48.150Z,8.30
2019-03-09T13:25:15.601Z,10.60
2019-03-09T13:27:43.640Z,10.30
2019-03-09T13:30:15.622Z,5.83
2019-03-09T13:32:44.128Z,10.07
2019-03-09T13:35:11.462Z,14.60
2019-03-09T13:37:38.824Z,9.93
2019-03-09T13:40:07.412Z,11.73
2019-03-09T13:42:36.501Z,11.40
2019-03-09T13:45:04.686Z,12.17
2019-03-09T13:47:32.003Z,11.47
2019-03-09T13:49:59.471Z,10.07
2019-03-09T13:52:26.883Z,13.63
2019-03-09T13:54:54.207Z,13.00
2019-03-09T13:57:21.686Z,15.07
2019-03-09T13:59:49.121Z,14.43
2019-03-09T14:02:16.721Z,11.10
2019-03-09T14:04:44.079Z,9.23
2019-03-09T14:07:12.061Z,11.73
2019-03-09T14:09:39.439Z,12.83
2019-03-09T14:12:06.948Z,11.90
2019-03-09T14:14:34.407Z,13.40
2019-03-09T14:17:01.793Z,10.40
2019-03-09T14:19:30.456Z,10.47
2019-03-09T14:21:57.856Z,12.87
2019-03-09T14:24:27.632Z,11.90
2019-03-09T14:26:56.585Z,14.63
2019-03-09T14:29:24.004Z,11.57
2019-03-09T14:31:51.492Z,12.33
2019-03-09T14:34:20.566Z,11.70
2019-03-09T14:36:47.946Z,8.20
2019-03-09T14:39:16.920Z,9.07
2019-03-09T14:41:44.226Z,8.70
2019-03-09T14:44:11.574Z,9.70
2019-03-09T14:46:38.935Z,9.67
2019-03-09T14:49:06.448Z,6.03
2019-03-09T14:51:33.791Z,7.10
2019-03-09T14:54:01.989Z,8.27
2019-03-09T14:56:29.357Z,8.53
2019-03-09T14:58:56.768Z,6.47
2019-03-09T15:01:24.173Z,6.77
2019-03-09T15:03:51.570Z,9.37
2019-03-09T15:06:18.998Z,11.30
2019-03-09T15:08:46.372Z,9.73
2019-03-09T15:11:13.843Z,9.67
2019-03-09T15:13:41.280Z,9.40
2019-03-09T15:16:08.600Z,10.07
2019-03-09T15:18:36.049Z,7.30
2019-03-09T15:21:03.387Z,15.07
2019-03-09T15:23:30.666Z,9.67
2019-03-09T15:25:58.351Z,11.13
2019-03-09T15:28:25.672Z,13.40
2019-03-09T15:30:53.004Z,10.80
2019-03-09T15:33:21.798Z,9.73
2019-03-09T15:35:49.287Z,9.83
2019-03-09T15:38:16.747Z,11.37
2019-03-09T15:40:44.124Z,16.27
2019-03-09T15:43:11.441Z,13.10
2019-03-09T15:45:38.878Z,11.70
2019-03-09T15:48:06.237Z,13.47
2019-03-09T15:50:33.578Z,13.33
2019-03-09T15:53:00.917Z,16.43
2019-03-09T15:55:28.251Z,14.47
2019-03-09T15:57:55.622Z,16.17
2019-03-09T16:00:25.826Z,16.37
2019-03-09T16:02:53.138Z,18.30
2019-03-09T16:05:20.486Z,22.17
2019-03-09T16:07:47.894Z,22.77
2019-03-09T16:10:15.950Z,20.93
2019-03-09T16:12:43.422Z,18.90
2019-03-09T16:15:11.818Z,18.13
2019-03-09T16:17:39.376Z,19.93
2019-03-09T16:20:08.361Z,19.60
2019-03-09T16:22:37.221Z,21.23
2019-03-09T16:25:05.024Z,21.10
2019-03-09T16:27:32.444Z,17.43
2019-03-09T16:29:59.756Z,21.90
2019-03-09T16:32:27.241Z,21.97
2019-03-09T16:34:54.626Z,21.40
2019-03-09T16:37:21.973Z,21.33
2019-03-09T16:39:49.438Z,19.17
2019-03-09T16:42:16.837Z,19.37
2019-03-09T16:44:44.235Z,19.23
2019-03-09T16:47:11.621Z,20.43
2019-03-09T16:49:39.235Z,23.90
2019-03-09T16:52:06.636Z,22.70
2019-03-09T16:54:33.958Z,25.17
2019-03-09T16:57:01.304Z,20.50
2019-03-09T16:59:28.646Z,26.70
2019-03-09T17:01:56.058Z,24.83
2019-03-09T17:04:23.466Z,21.13
2019-03-09T17:06:50.854Z,20.00
2019-03-09T17:09:18.248Z,23.23
2019-03-09T17:11:45.566Z,22.20
2019-03-09T17:14:12.992Z,23.23
2019-03-09T17:16:40.418Z,24.97
2019-03-09T17:19:07.751Z,24.50
2019-03-09T17:21:35.123Z,21.77
2019-03-09T17:24:02.458Z,22.83
2019-03-09T17:26:29.789Z,24.00
2019-03-09T17:28:57.197Z,16.33
2019-03-09T17:31:24.639Z,20.13
2019-03-09T17:33:52.059Z,17.43
2019-03-09T17:36:19.465Z,15.27
2019-03-09T17:38:46.883Z,19.30
2019-03-09T17:41:14.257Z,19.30
2019-03-09T17:43:41.610Z,16.77
2019-03-09T17:46:09.065Z,21.60
2019-03-09T17:48:36.465Z,18.93
2019-03-09T17:51:04.099Z,20.67
2019-03-09T17:53:31.405Z,18.27
2019-03-09T17:55:59.211Z,16.67
2019-03-09T17:58:26.660Z,18.43
2019-03-09T18:00:53.970Z,12.07
2019-03-09T18:03:21.320Z,13.10
2019-03-09T18:05:48.727Z,11.53
2019-03-09T18:08:16.073Z,5.83
2019-03-09T18:10:53.807Z,5.17
2019-03-09T18:13:21.189Z,4.37
2019-03-09T18:15:48.519Z,4.70
2019-03-09T18:18:17.787Z,5.30
2019-03-09T18:20:45.015Z,4.77
2019-03-09T18:23:13.661Z,5.70
2019-03-09T18:25:41.109Z,8.57
2019-03-09T18:28:08.419Z,6.00
2019-03-09T18:30:35.742Z,6.80
2019-03-09T18:33:03.109Z,6.57
2019-03-09T18:35:30.484Z,6.63
2019-03-09T18:37:59.467Z,6.00
2019-03-09T18:40:26.941Z,7.53
2019-03-09T18:42:54.331Z,6.83
2019-03-09T18:45:22.151Z,3.90
2019-03-09T18:47:49.512Z,5.37
2019-03-09T18:50:16.834Z,6.67
2019-03-09T18:52:44.196Z,5.83
2019-03-09T18:55:11.569Z,6.50
2019-03-09T18:57:38.836Z,5.47
2019-03-09T19:00:07.847Z,4.80
2019-03-09T19:02:35.154Z,3.87
2019-03-09T19:05:02.569Z,7.23
2019-03-09T19:07:29.964Z,7.13
2019-03-09T19:09:57.341Z,6.33
2019-03-09T19:12:24.663Z,7.57
2019-03-09T19:14:52.455Z,4.80
2019-03-09T19:17:19.812Z,8.67
2019-03-09T19:19:47.177Z,6.60
2019-03-09T19:22:14.501Z,6.87
2019-03-09T19:24:41.965Z,5.20
2019-03-09T19:27:09.311Z,5.57
2019-03-09T19:29:38.277Z,7.30
2019-03-09T19:32:05.662Z,10.83
2019-03-09T19:34:32.985Z,10.27
2019-03-09T19:37:00.505Z,10.10
2019-03-09T19:39:27.843Z,7.47
2019-03-09T19:41:55.193Z,10.60
2019-03-09T19:44:22.702Z,5.97
2019-03-09T19:46:50.073Z,6.47
2019-03-09T19:49:17.395Z,7.63
2019-03-09T19:51:44.736Z,5.27
2019-03-09T19:54:12.191Z,6.23
2019-03-09T19:56:39.612Z,6.10
2019-03-09T19:59:06.955Z,6.57
2019-03-09T20:01:34.347Z,6.17
2019-03-09T20:04:01.692Z,5.93
2019-03-09T20:06:29.025Z,5.63
2019-03-09T20:08:58.171Z,7.77
2019-03-09T20:11:27.124Z,7.00
2019-03-09T20:13:54.751Z,7.33
2019-03-09T20:16:22.169Z,6.57
2019-03-09T20:18:49.499Z,6.80
2019-03-09T20:21:16.841Z,6.50
2019-03-09T20:23:44.242Z,6.23
2019-03-09T20:26:11.597Z,6.40
2019-03-09T20:28:40.561Z,6.40
2019-03-09T20:31:07.873Z,7.87
2019-03-09T20:33:35.277Z,6.53
2019-03-09T20:36:02.579Z,8.50
2019-03-09T20:38:29.920Z,10.33
2019-03-09T20:40:57.892Z,9.30
2019-03-09T20:43:25.344Z,9.70
2019-03-09T20:45:52.741Z,7.43
2019-03-09T20:48:20.101Z,9.40
2019-03-09T20:50:47.470Z,10.87
2019-03-09T20:53:14.962Z,10.03
2019-03-09T20:55:42.323Z,10.00
2019-03-09T20:58:09.681Z,11.90
2019-03-09T21:00:38.266Z,10.47
2019-03-09T21:03:05.794Z,8.27
2019-03-09T21:05:33.182Z,10.17
2019-03-09T21:08:00.741Z,8.87
2019-03-09T21:10:28.096Z,8.37
2019-03-09T21:12:56.098Z,6.37
2019-03-09T21:15:23.449Z,6.17
2019-03-09T21:17:50.830Z,7.70
2019-03-09T21:20:18.198Z,6.93
2019-03-09T21:22:45.654Z,5.30
2019-03-09T21:25:13.036Z,5.47
2019-03-09T21:27:40.460Z,4.07
2019-03-09T21:30:08.072Z,8.47
2019-03-09T21:32:35.400Z,5.17
2019-03-09T21:35:03.317Z,4.43
2019-03-09T21:37:30.934Z,9.67
2019-03-09T21:39:58.306Z,4.33
2019-03-09T21:42:25.679Z,3.53
2019-03-09T21:44:53.156Z,4.27
2019-03-09T21:47:20.611Z,4.73
2019-03-09T21:49:48.024Z,2.87
2019-03-09T21:52:15.948Z,5.77
2019-03-09T21:54:43.807Z,5.43
2019-03-09T21:57:11.211Z,3.70
2019-03-09T21:59:38.568Z,7.07
2019-03-09T22:02:06.273Z,4.47
2019-03-09T22:04:33.666Z,3.47
2019-03-09T22:07:01.058Z,5.53
2019-03-09T22:09:28.479Z,4.67
2019-03-09T22:11:55.923Z,6.93
2019-03-09T22:14:23.354Z,6.70
2019-03-09T22:16:56.441Z,11.43
2019-03-09T22:19:19.860Z,13.13
2019-03-09T22:21:47.230Z,17.03
2019-03-09T22:24:14.714Z,19.73
2019-03-09T22:26:42.260Z,16.03
2019-03-09T22:29:09.617Z,13.47
2019-03-09T22:31:36.920Z,11.20
2019-03-09T22:34:04.448Z,15.50
2019-03-09T22:36:31.764Z,14.63
2019-03-09T22:38:59.157Z,15.33
2019-03-09T22:41:26.616Z,21.80
2019-03-09T22:43:54.034Z,17.00
2019-03-09T22:46:21.386Z,14.67
2019-03-09T22:48:48.723Z,9.40
2019-03-09T22:51:16.190Z,9.07
2019-03-09T22:53:43.522Z,5.70
2019-03-09T22:56:10.926Z,6.80
2019-03-09T22:58:38.503Z,4.60
2019-03-09T23:01:05.917Z,4.90
2019-03-09T23:03:33.258Z,6.43
2019-03-09T23:06:00.782Z,5.17
2019-03-09T23:08:28.146Z,6.70
2019-03-09T23:10:55.468Z,7.73
2019-03-09T23:13:22.845Z,6.80
2019-03-09T23:15:50.192Z,6.03
2019-03-09T23:18:17.578Z,3.63
2019-03-09T23:20:44.918Z,4.70
2019-03-09T23:23:12.261Z,5.50
2019-03-09T23:25:39.593Z,8.10
2019-03-09T23:28:06.913Z,6.23
2019-03-09T23:30:34.309Z,3.37
2019-03-09T23:33:01.647Z,4.60
2019-03-09T23:35:28.959Z,7.60
2019-03-09T23:37:56.312Z,8.03
2019-03-09T23:40:23.751Z,6.40
2019-03-09T23:42:51.183Z,6.47
2019-03-09T23:45:19.177Z,4.90
2019-03-09T23:47:46.575Z,3.93
2019-03-09T23:50:14.784Z,3.87
2019-03-09T23:52:42.130Z,3.40
2019-03-09T23:55:09.531Z,4.53
2019-03-09T23:57:36.857Z,1.67
